Terminal Aerodrome Forecast
Issued by NWS

Home | Current Version | Previous Version | Text Only | Print | Product List | Glossary On
Versions: 1 2 3 4 5 6 7 8 9 10 11 12 13 14 15 16 17 18 19
000
FTUS42 KGSP 272339
TAFHKY
TAF
KHKY 272339Z 2800/2824 06005KT P6SM VCSH BKN045
     FM280200 VRB02KT P6SM SCT050
     FM280700 VRB02KT P6SM SCT025
     FM280900 04003KT 5SM BR SCT008 BKN025
      TEMPO 2809/2813 3SM BR BKN008
     FM281300 05005KT P6SM BKN025
     FM281500 05005KT P6SM SCT025
     FM281600 05006KT P6SM SCT150=

USA.gov is the U.S. government's official web portal to all federal, state and local government web resources and services.